Aspen — V7QE9 — position and weather

sailwx.info

Track history (hours):
 
Tides and Currents Weather Stations Pressure Air Temp Water Temp Dewpoint Dewpoint Depression Visibility Wind Speed Wind Dir Waves Ship Positions

Aspen

Last reported at 2018-May-29 12:36 UTC. Time now 2018-Jul-20 08:23 UTC.
Position N 01°17' E 104°52'.
Warning: this ship's position is 51 days out of date.

Length 190 m; draft 6.6 m.

Type: Cargo ship. MMSI: 538006689.

Date/timePositionNaut miles runAvg speedWind from/ knotsBaromVisibWave heightAir tempDewpointWater temp
2018-May-29 12:36N 01°17' E 104°52'211.9
2018-May-29 12:28N 01°18' E 104°50'611.9
2018-May-29 11:59N 01°19' E 104°44'611.6
2018-May-29 11:28N 01°20' E 104°39'611.5
2018-May-29 10:59N 01°21' E 104°33'511.3
2018-May-29 10:30N 01°22' E 104°28'611.0
2018-May-29 10:00N 01°20' E 104°23'610.9
2018-May-29 09:28N 01°17' E 104°18'611.4
2018-May-29 08:58N 01°16' E 104°12'611.8
2018-May-29 08:28N 01°15' E 104°06'511.3
2018-May-29 07:59N 01°15' E 104°01'4 8.1
2018-May-29 07:30N 01°16' E 103°57'2 3.1
2018-May-29 06:58N 01°17' E 103°57'0 0.1
2018-May-29 06:16N 01°17' E 103°57'0 0.0
2018-May-29 05:52N 01°17' E 103°57'0 0.0
2018-May-29 05:22N 01°17' E 103°57'0 0.0
2018-May-29 04:55N 01°17' E 103°57'0 0.0
2018-May-29 04:16N 01°17' E 103°57'0 0.0
2018-May-29 03:58N 01°17' E 103°57'0 0.0
2018-May-29 03:28N 01°17' E 103°57'0 0.0
2018-May-29 02:55N 01°17' E 103°57'0 0.0
2018-May-29 02:24N 01°17' E 103°57'0 0.0
2018-May-29 01:52N 01°17' E 103°57'0 0.0
2018-May-29 01:28N 01°17' E 103°57'0 0.0
2018-May-29 00:52N 01°17' E 103°57'0 0.0
2018-May-29 00:28N 01°17' E 103°57'0 0.1
2018-May-28 23:52N 01°17' E 103°57'0 0.2
2018-May-28 23:28N 01°17' E 103°57'0 0.2
2018-May-28 22:58N 01°17' E 103°57'1 2.2
2018-May-28 22:30N 01°17' E 103°58'2 3.7
2018-May-28 22:00N 01°15' E 103°57'3 6.1
2018-May-28 21:28N 01°13' E 103°55'4 8.7
2018-May-28 20:59N 01°11' E 103°51'4 8.1
2018-May-28 20:30N 01°09' E 103°48'5 9.5
2018-May-28 20:00N 01°06' E 103°44'510.5
2018-May-28 19:30N 01°03' E 103°40'510.6
2018-May-28 18:59N 01°05' E 103°35'611.8
2018-May-28 18:30N 01°08' E 103°30'612.1
2018-May-28 17:59N 01°12' E 103°25'  
Track history (hours):
 
Tides and Currents Weather Stations Pressure Air Temp Water Temp Dewpoint Dewpoint Depression Visibility Wind Speed Wind Dir Waves Ship Positions

Aspen

Last reported at 2018-May-29 12:36 UTC. Time now 2018-Jul-20 08:23 UTC.
Position N 01°17' E 104°52'.
Warning: this ship's position is 51 days out of date.

Length 190 m; draft 6.6 m.

Type: Cargo ship. MMSI: 538006689.

Date/timePositionNaut miles runAvg speedWind from/ knotsBaromVisibWave heightAir tempDewpointWater temp
2018-May-29 12:36N 01°17' E 104°52'211.9
2018-May-29 12:28N 01°18' E 104°50'611.9
2018-May-29 11:59N 01°19' E 104°44'611.6
2018-May-29 11:28N 01°20' E 104°39'611.5
2018-May-29 10:59N 01°21' E 104°33'511.3
2018-May-29 10:30N 01°22' E 104°28'611.0
2018-May-29 10:00N 01°20' E 104°23'610.9
2018-May-29 09:28N 01°17' E 104°18'611.4
2018-May-29 08:58N 01°16' E 104°12'611.8
2018-May-29 08:28N 01°15' E 104°06'511.3
2018-May-29 07:59N 01°15' E 104°01'4 8.1
2018-May-29 07:30N 01°16' E 103°57'2 3.1
2018-May-29 06:58N 01°17' E 103°57'0 0.1
2018-May-29 06:16N 01°17' E 103°57'0 0.0
2018-May-29 05:52N 01°17' E 103°57'0 0.0
2018-May-29 05:22N 01°17' E 103°57'0 0.0
2018-May-29 04:55N 01°17' E 103°57'0 0.0
2018-May-29 04:16N 01°17' E 103°57'0 0.0
2018-May-29 03:58N 01°17' E 103°57'0 0.0
2018-May-29 03:28N 01°17' E 103°57'0 0.0
2018-May-29 02:55N 01°17' E 103°57'0 0.0
2018-May-29 02:24N 01°17' E 103°57'0 0.0
2018-May-29 01:52N 01°17' E 103°57'0 0.0
2018-May-29 01:28N 01°17' E 103°57'0 0.0
2018-May-29 00:52N 01°17' E 103°57'0 0.0
2018-May-29 00:28N 01°17' E 103°57'0 0.1
2018-May-28 23:52N 01°17' E 103°57'0 0.2
2018-May-28 23:28N 01°17' E 103°57'0 0.2
2018-May-28 22:58N 01°17' E 103°57'1 2.2
2018-May-28 22:30N 01°17' E 103°58'2 3.7
2018-May-28 22:00N 01°15' E 103°57'3 6.1
2018-May-28 21:28N 01°13' E 103°55'4 8.7
2018-May-28 20:59N 01°11' E 103°51'4 8.1
2018-May-28 20:30N 01°09' E 103°48'5 9.5
2018-May-28 20:00N 01°06' E 103°44'510.5
2018-May-28 19:30N 01°03' E 103°40'510.6
2018-May-28 18:59N 01°05' E 103°35'611.8
2018-May-28 18:30N 01°08' E 103°30'612.1
2018-May-28 17:59N 01°12' E 103°25'  

Dump ship's entire track history